createdAt,value
2018-07-04T00:02:27.356Z,16.98
2018-07-04T00:04:55.016Z,16.94
2018-07-04T00:07:23.537Z,16.89
2018-07-04T00:09:52.010Z,16.85
2018-07-04T00:12:19.772Z,16.80
2018-07-04T00:14:47.457Z,16.74
2018-07-04T00:17:15.136Z,16.70
2018-07-04T00:19:42.796Z,16.66
2018-07-04T00:22:10.449Z,16.62
2018-07-04T00:24:38.408Z,16.61
2018-07-04T00:27:06.118Z,16.60
2018-07-04T00:29:33.820Z,16.59
2018-07-04T00:32:01.496Z,16.53
2018-07-04T00:34:29.446Z,16.49
2018-07-04T00:36:57.137Z,16.43
2018-07-04T00:39:24.860Z,16.38
2018-07-04T00:41:52.533Z,16.34
2018-07-04T00:44:21.428Z,16.31
2018-07-04T00:46:49.145Z,16.28
2018-07-04T00:49:17.491Z,16.28
2018-07-04T00:51:46.356Z,16.26
2018-07-04T00:54:14.308Z,16.26
2018-07-04T00:56:42.707Z,16.28
2018-07-04T00:59:10.368Z,16.31
2018-07-04T01:01:38.060Z,16.38
2018-07-04T01:04:06.165Z,16.42
2018-07-04T01:06:34.865Z,16.47
2018-07-04T01:09:02.555Z,16.52
2018-07-04T01:11:30.254Z,16.56
2018-07-04T01:13:59.112Z,16.58
2018-07-04T01:16:26.800Z,16.59
2018-07-04T01:18:54.836Z,16.57
2018-07-04T01:21:23.444Z,16.53
2018-07-04T01:23:51.239Z,16.48
2018-07-04T01:26:18.901Z,16.44
2018-07-04T01:28:50.521Z,16.42
2018-07-04T01:31:18.492Z,16.41
2018-07-04T01:33:46.176Z,16.40
2018-07-04T01:36:13.824Z,16.41
2018-07-04T01:38:41.510Z,16.43
2018-07-04T01:41:09.464Z,16.44
2018-07-04T01:43:37.609Z,16.46
2018-07-04T01:46:05.299Z,16.49
2018-07-04T01:48:33.244Z,16.51
2018-07-04T01:51:01.639Z,16.54
2018-07-04T01:53:29.308Z,16.56
2018-07-04T01:55:57.615Z,16.60
2018-07-04T01:58:26.192Z,16.62
2018-07-04T02:00:53.876Z,16.62
2018-07-04T02:03:21.557Z,16.60
2018-07-04T02:05:49.580Z,16.56
2018-07-04T02:08:17.256Z,16.51
2018-07-04T02:10:44.917Z,16.49
2018-07-04T02:13:12.610Z,16.50
2018-07-04T02:15:40.298Z,16.54
2018-07-04T02:18:08.016Z,16.58
2018-07-04T02:20:35.716Z,16.62
2018-07-04T02:23:03.690Z,16.67
2018-07-04T02:25:34.456Z,16.71
2018-07-04T02:28:02.180Z,16.74
2018-07-04T02:30:30.130Z,16.77
2018-07-04T02:32:57.802Z,16.83
2018-07-04T02:35:25.498Z,16.95
2018-07-04T02:37:53.216Z,17.02
2018-07-04T02:40:21.364Z,17.08
2018-07-04T02:42:49.060Z,17.07
2018-07-04T02:45:16.739Z,16.99
2018-07-04T02:47:44.756Z,16.88
2018-07-04T02:50:12.443Z,16.81
2018-07-04T02:52:40.604Z,16.76
2018-07-04T02:55:09.376Z,16.71
2018-07-04T02:57:37.051Z,16.68
2018-07-04T03:00:04.741Z,16.65
2018-07-04T03:02:32.524Z,16.68
2018-07-04T03:05:00.500Z,16.71
2018-07-04T03:07:28.187Z,16.75
2018-07-04T03:09:55.870Z,16.81
2018-07-04T03:12:23.577Z,16.85
2018-07-04T03:14:51.528Z,16.92
2018-07-04T03:17:19.198Z,16.94
2018-07-04T03:19:46.872Z,16.94
2018-07-04T03:22:14.559Z,16.90
2018-07-04T03:24:43.359Z,16.83
2018-07-04T03:27:11.027Z,16.80
2018-07-04T03:29:38.698Z,16.78
2018-07-04T03:32:06.385Z,16.78
2018-07-04T03:34:34.360Z,16.82
2018-07-04T03:37:02.061Z,16.87
2018-07-04T03:39:29.733Z,16.88
2018-07-04T03:41:57.837Z,16.92
2018-07-04T03:44:25.558Z,16.97
2018-07-04T03:46:53.288Z,16.96
2018-07-04T03:49:21.274Z,16.94
2018-07-04T03:51:49.269Z,16.91
2018-07-04T03:54:20.640Z,16.88
2018-07-04T03:56:48.333Z,16.88
2018-07-04T03:59:16.306Z,16.87
2018-07-04T04:01:44.824Z,16.85
2018-07-04T04:04:12.488Z,16.81
2018-07-04T04:06:40.242Z,16.80
2018-07-04T04:09:08.267Z,16.80
2018-07-04T04:11:36.619Z,16.82
2018-07-04T04:14:04.373Z,16.82
2018-07-04T04:16:32.363Z,16.86
2018-07-04T04:19:00.070Z,16.95
2018-07-04T04:21:28.122Z,17.00
2018-07-04T04:23:55.817Z,17.09
2018-07-04T04:26:25.259Z,17.17
2018-07-04T04:28:53.060Z,17.20
2018-07-04T04:31:22.399Z,17.24
2018-07-04T04:33:50.438Z,17.23
2018-07-04T04:36:18.148Z,17.24
2018-07-04T04:38:45.889Z,17.29
2018-07-04T04:41:14.814Z,17.32
2018-07-04T04:43:42.513Z,17.35
2018-07-04T04:46:10.956Z,17.38
2018-07-04T04:48:39.036Z,17.40
2018-07-04T04:51:06.737Z,17.45
2018-07-04T04:56:08.153Z,17.51
2018-07-04T04:58:36.488Z,17.53
2018-07-04T05:01:04.164Z,17.56
2018-07-04T05:03:32.256Z,17.61
2018-07-04T05:05:59.980Z,17.65
2018-07-04T05:08:27.653Z,17.68
2018-07-04T05:10:55.629Z,17.70
2018-07-04T05:13:23.322Z,17.72
2018-07-04T05:15:52.763Z,17.73
2018-07-04T05:18:20.729Z,17.71
2018-07-04T05:20:48.431Z,17.70
2018-07-04T05:23:16.120Z,17.73
2018-07-04T05:25:46.877Z,17.76
2018-07-04T05:28:15.570Z,17.80
2018-07-04T05:30:43.248Z,17.87
2018-07-04T05:33:11.244Z,17.96
2018-07-04T05:35:38.896Z,18.06
2018-07-04T05:38:06.570Z,18.16
2018-07-04T05:40:34.530Z,18.30
2018-07-04T05:43:02.969Z,18.47
2018-07-04T05:45:30.656Z,18.69
2018-07-04T05:47:58.589Z,18.95
2018-07-04T05:50:26.261Z,19.25
2018-07-04T05:52:53.984Z,19.54
2018-07-04T05:55:22.708Z,19.72
2018-07-04T05:57:50.382Z,19.82
2018-07-04T06:00:18.656Z,19.88
2018-07-04T06:02:46.756Z,19.95
2018-07-04T06:05:14.424Z,20.04
2018-07-04T06:07:42.084Z,20.12
2018-07-04T06:10:10.048Z,20.23
2018-07-04T06:12:37.702Z,20.37
2018-07-04T06:15:05.819Z,20.53
2018-07-04T06:17:33.631Z,20.68
2018-07-04T06:20:03.284Z,20.83
2018-07-04T06:22:31.272Z,20.98
2018-07-04T06:24:58.929Z,21.10
2018-07-04T06:27:26.591Z,21.17
2018-07-04T06:29:54.531Z,21.22
2018-07-04T06:32:22.247Z,21.23
2018-07-04T06:34:50.752Z,21.26
2018-07-04T06:37:18.705Z,21.27
2018-07-04T06:39:46.368Z,21.30
2018-07-04T06:42:16.260Z,21.35
2018-07-04T06:44:44.206Z,21.51
2018-07-04T06:47:12.487Z,21.73
2018-07-04T06:49:42.326Z,21.89
2018-07-04T06:52:10.303Z,22.06
2018-07-04T06:54:37.960Z,22.24
2018-07-04T06:57:05.617Z,22.38
2018-07-04T06:59:33.751Z,22.52
2018-07-04T07:02:01.397Z,22.64
2018-07-04T07:04:32.705Z,22.79
2018-07-04T07:07:01.772Z,22.85
2018-07-04T07:09:30.444Z,22.95
2018-07-04T07:12:00.120Z,23.06
2018-07-04T07:14:28.928Z,23.19
2018-07-04T07:16:56.585Z,23.34
2018-07-04T07:19:24.253Z,23.54
2018-07-04T07:21:52.233Z,23.73
2018-07-04T07:24:19.909Z,23.92
2018-07-04T07:26:47.575Z,24.08
2018-07-04T07:29:15.524Z,24.26
2018-07-04T07:31:43.290Z,24.40
2018-07-04T07:34:11.076Z,24.52
2018-07-04T07:36:39.020Z,24.62
2018-07-04T07:39:06.663Z,24.71
2018-07-04T07:41:34.356Z,24.80
2018-07-04T07:44:02.325Z,24.90
2018-07-04T07:46:30.026Z,25.02
2018-07-04T07:48:57.700Z,25.10
2018-07-04T07:51:26.641Z,25.19
2018-07-04T07:53:54.368Z,25.30
2018-07-04T07:56:23.337Z,25.39
2018-07-04T07:58:51.353Z,25.49
2018-07-04T08:01:19.050Z,25.60
2018-07-04T08:03:46.735Z,25.72
2018-07-04T08:06:16.391Z,25.81
2018-07-04T08:08:44.096Z,25.94
2018-07-04T08:11:13.006Z,26.05
2018-07-04T08:13:41.777Z,26.17
2018-07-04T08:16:09.495Z,26.29
2018-07-04T08:18:41.698Z,26.40
2018-07-04T08:21:10.249Z,26.49
2018-07-04T08:23:37.917Z,26.63
2018-07-04T08:26:05.611Z,26.78
2018-07-04T08:28:33.612Z,26.93
2018-07-04T08:31:01.937Z,27.09
2018-07-04T08:33:29.642Z,27.27
2018-07-04T08:35:58.209Z,27.48
2018-07-04T08:38:25.896Z,27.62
2018-07-04T08:40:54.719Z,27.76
2018-07-04T08:43:22.676Z,27.89
2018-07-04T08:45:51.683Z,28.02
2018-07-04T08:48:19.799Z,28.14
2018-07-04T08:50:49.559Z,28.27
2018-07-04T08:53:17.367Z,28.40
2018-07-04T08:55:45.033Z,28.55
2018-07-04T08:58:13.840Z,28.65
2018-07-04T09:00:42.529Z,28.76
2018-07-04T09:03:10.433Z,28.88
2018-07-04T09:05:41.889Z,29.01
2018-07-04T09:08:09.559Z,29.17
2018-07-04T09:10:38.740Z,29.31
2018-07-04T09:13:09.794Z,29.53
2018-07-04T09:15:38.495Z,29.75
2018-07-04T09:18:08.455Z,29.93
2018-07-04T09:20:36.663Z,30.06
2018-07-04T09:23:04.890Z,30.21
2018-07-04T09:25:32.596Z,30.40
2018-07-04T09:28:01.543Z,30.54
2018-07-04T09:30:29.548Z,30.69
2018-07-04T09:32:58.901Z,30.78
2018-07-04T09:35:27.369Z,30.87
2018-07-04T09:37:55.070Z,31.05
2018-07-04T09:40:22.746Z,31.25
2018-07-04T09:42:52.120Z,31.42
2018-07-04T09:45:20.587Z,31.54
2018-07-04T09:47:48.371Z,31.71
2018-07-04T09:50:16.341Z,31.93
2018-07-04T09:52:44.558Z,32.12
2018-07-04T09:55:12.272Z,32.25
2018-07-04T09:57:40.227Z,32.40
2018-07-04T10:00:08.581Z,32.64
2018-07-04T10:02:40.469Z,32.85
2018-07-04T10:05:18.005Z,33.15
2018-07-04T10:07:45.708Z,33.37
2018-07-04T10:10:14.220Z,33.35
2018-07-04T10:12:41.945Z,33.21
2018-07-04T10:15:09.673Z,33.27
2018-07-04T10:17:37.659Z,33.08
2018-07-04T10:20:05.336Z,32.80
2018-07-04T10:22:33.033Z,32.65
2018-07-04T10:25:03.200Z,32.84
2018-07-04T10:27:32.580Z,33.15
2018-07-04T10:30:02.652Z,33.53
2018-07-04T10:32:33.034Z,33.92
2018-07-04T10:35:01.435Z,34.37
2018-07-04T10:37:29.161Z,34.77
2018-07-04T10:39:57.151Z,34.89
2018-07-04T10:42:24.882Z,35.23
2018-07-04T10:44:53.551Z,35.61
2018-07-04T10:47:22.338Z,36.03
2018-07-04T10:49:50.089Z,36.53
2018-07-04T10:52:18.453Z,36.80
2018-07-04T10:54:46.382Z,36.96
2018-07-04T10:57:14.327Z,36.68
2018-07-04T10:59:42.018Z,36.46
2018-07-04T11:02:09.948Z,36.23
2018-07-04T11:04:37.703Z,36.14
2018-07-04T11:07:07.289Z,36.13
2018-07-04T11:09:35.450Z,36.22
2018-07-04T11:12:04.071Z,36.08
2018-07-04T11:14:31.778Z,35.98
2018-07-04T11:16:59.744Z,35.98
2018-07-04T11:19:27.461Z,35.97
2018-07-04T11:21:55.142Z,35.94
2018-07-04T11:24:23.262Z,35.87
2018-07-04T11:26:51.104Z,35.92
2018-07-04T11:29:18.833Z,35.91
2018-07-04T11:31:46.891Z,35.83
2018-07-04T11:34:15.086Z,35.95
2018-07-04T11:36:42.795Z,36.07
2018-07-04T11:39:10.781Z,36.26
2018-07-04T11:41:38.464Z,36.38
2018-07-04T11:44:06.129Z,36.45
2018-07-04T11:46:34.296Z,36.52
2018-07-04T11:49:03.469Z,36.44
2018-07-04T11:51:32.171Z,36.55
2018-07-04T11:54:00.822Z,36.78
2018-07-04T11:56:28.728Z,37.00
2018-07-04T11:58:56.464Z,36.83
2018-07-04T12:01:25.400Z,36.22
2018-07-04T12:03:53.084Z,35.56
2018-07-04T12:06:21.349Z,35.14
2018-07-04T12:08:49.405Z,34.74
2018-07-04T12:11:17.925Z,34.50
2018-07-04T12:13:46.200Z,34.58
2018-07-04T12:16:15.504Z,34.35
2018-07-04T12:18:43.170Z,34.04
2018-07-04T12:21:10.820Z,33.62
2018-07-04T12:23:39.317Z,33.22
2018-07-04T12:26:08.353Z,32.85
2018-07-04T12:28:36.033Z,32.51
2018-07-04T12:31:04.049Z,32.22
2018-07-04T12:33:31.803Z,31.97
2018-07-04T12:36:03.383Z,31.75
2018-07-04T12:38:32.405Z,31.55
2018-07-04T12:41:02.304Z,31.40
2018-07-04T12:43:30.711Z,31.17
2018-07-04T12:45:59.400Z,30.93
2018-07-04T12:48:27.337Z,30.80
2018-07-04T12:50:56.205Z,30.77
2018-07-04T12:53:24.132Z,30.81
2018-07-04T12:55:51.804Z,31.10
2018-07-04T12:58:21.656Z,32.02
2018-07-04T13:00:54.481Z,32.99
2018-07-04T13:03:23.428Z,33.19
2018-07-04T13:05:51.873Z,33.02
2018-07-04T13:08:22.420Z,32.75
2018-07-04T13:10:50.111Z,32.36
2018-07-04T13:13:18.476Z,32.07
2018-07-04T13:15:46.420Z,31.81
2018-07-04T13:18:17.031Z,31.59
2018-07-04T13:20:44.711Z,31.26
2018-07-04T13:23:12.690Z,30.97
2018-07-04T13:25:40.431Z,30.77
2018-07-04T13:28:11.029Z,30.57
2018-07-04T13:30:40.649Z,30.39
2018-07-04T13:33:10.081Z,30.26
2018-07-04T13:35:37.800Z,30.22
2018-07-04T13:38:05.711Z,30.21
2018-07-04T13:43:07.362Z,30.05
2018-07-04T13:45:36.869Z,29.98
2018-07-04T13:48:09.213Z,30.02
2018-07-04T13:50:39.693Z,30.11
2018-07-04T13:53:09.760Z,30.15
2018-07-04T13:55:37.762Z,30.13
2018-07-04T13:58:05.616Z,30.11
2018-07-04T14:00:34.480Z,30.09
2018-07-04T14:03:04.875Z,30.05
2018-07-04T14:05:33.065Z,30.01
2018-07-04T14:08:01.801Z,29.95
2018-07-04T14:10:29.553Z,29.94
2018-07-04T14:12:57.236Z,29.99
2018-07-04T14:15:26.988Z,30.06
2018-07-04T14:17:55.025Z,30.30
2018-07-04T14:20:24.019Z,30.64
2018-07-04T14:22:54.130Z,31.12
2018-07-04T14:25:22.420Z,31.37
2018-07-04T14:27:50.134Z,31.27
2018-07-04T14:30:19.497Z,31.22
2018-07-04T14:32:48.420Z,31.19
2018-07-04T14:35:16.921Z,31.14
2018-07-04T14:37:46.953Z,31.04
2018-07-04T14:40:14.675Z,31.20
2018-07-04T14:42:42.937Z,31.58
2018-07-04T14:45:11.573Z,32.17
2018-07-04T14:47:41.656Z,32.68
2018-07-04T14:50:09.512Z,33.09
2018-07-04T14:52:38.535Z,33.14
2018-07-04T14:55:06.288Z,33.10
2018-07-04T14:57:34.509Z,33.02
2018-07-04T15:00:03.489Z,32.86
2018-07-04T15:02:32.361Z,32.66
2018-07-04T15:05:00.059Z,32.34
2018-07-04T15:07:28.050Z,32.10
2018-07-04T15:09:55.808Z,32.13
2018-07-04T15:12:24.181Z,32.25
2018-07-04T15:14:55.685Z,32.50
2018-07-04T15:17:23.413Z,32.44
2018-07-04T15:19:51.144Z,32.51
2018-07-04T15:22:20.373Z,32.33
2018-07-04T15:24:48.055Z,32.16
2018-07-04T15:27:15.752Z,32.27
2018-07-04T15:29:43.720Z,32.35
2018-07-04T15:32:11.687Z,32.47
2018-07-04T15:34:39.414Z,32.58
2018-07-04T15:37:07.409Z,32.62
2018-07-04T15:39:35.793Z,32.60
2018-07-04T15:42:04.243Z,32.60
2018-07-04T15:44:32.324Z,32.68
2018-07-04T15:47:00.846Z,32.73
2018-07-04T15:49:28.533Z,32.71
2018-07-04T15:51:56.465Z,32.73
2018-07-04T15:54:24.132Z,32.96
2018-07-04T15:56:53.278Z,33.20
2018-07-04T15:59:21.232Z,33.28
2018-07-04T16:01:52.560Z,33.27
2018-07-04T16:04:21.456Z,33.15
2018-07-04T16:06:54.620Z,32.78
2018-07-04T16:09:22.527Z,32.67
2018-07-04T16:11:51.045Z,32.70
2018-07-04T16:14:19.390Z,32.89
2018-07-04T16:16:53.429Z,33.06
2018-07-04T16:19:25.116Z,33.34
2018-07-04T16:21:53.099Z,33.61
2018-07-04T16:24:21.291Z,33.92
2018-07-04T16:26:48.981Z,34.00
2018-07-04T16:29:16.930Z,33.66
2018-07-04T16:31:44.673Z,33.01
2018-07-04T16:34:12.432Z,32.53
2018-07-04T16:36:40.436Z,32.22
2018-07-04T16:39:11.741Z,31.87
2018-07-04T16:41:45.130Z,31.55
2018-07-04T16:44:15.229Z,31.24
2018-07-04T16:46:44.400Z,30.99
2018-07-04T16:49:12.905Z,30.75
2018-07-04T16:51:42.443Z,30.58
2018-07-04T16:54:10.841Z,30.47
2018-07-04T16:56:39.340Z,30.32
2018-07-04T16:59:10.487Z,30.18
2018-07-04T17:01:39.332Z,29.98
2018-07-04T17:04:11.968Z,29.75
2018-07-04T17:06:39.899Z,29.57
2018-07-04T17:09:09.164Z,29.41
2018-07-04T17:11:36.822Z,29.29
2018-07-04T17:14:06.149Z,29.17
2018-07-04T17:16:35.426Z,29.05
2018-07-04T17:32:16.577Z,28.56
2018-07-04T17:34:44.254Z,28.56
2018-07-04T17:37:12.249Z,28.56
2018-07-04T17:39:39.941Z,28.55
2018-07-04T17:42:07.685Z,28.52
2018-07-04T17:44:36.642Z,28.44
2018-07-04T17:47:05.649Z,28.37
2018-07-04T17:49:34.056Z,28.28
2018-07-04T17:52:02.231Z,28.16
2018-07-04T17:54:30.870Z,28.03
2018-07-04T17:56:58.540Z,27.92
2018-07-04T17:59:30.163Z,27.81
2018-07-04T18:01:57.860Z,27.69
2018-07-04T18:04:25.547Z,27.60
2018-07-04T18:06:55.371Z,27.51
2018-07-04T18:09:24.704Z,27.42
2018-07-04T18:11:52.459Z,27.34
2018-07-04T18:14:20.413Z,27.27
2018-07-04T18:16:50.301Z,27.19
2018-07-04T18:19:19.291Z,27.13
2018-07-04T18:21:48.088Z,27.07
2018-07-04T18:24:15.755Z,27.00
2018-07-04T18:26:45.427Z,26.94
2018-07-04T18:29:13.430Z,26.87
2018-07-04T18:31:41.110Z,26.81
2018-07-04T18:34:09.326Z,26.75
2018-07-04T18:36:37.592Z,26.70
2018-07-04T18:39:05.670Z,26.64
2018-07-04T18:41:34.736Z,26.58
2018-07-04T18:44:07.510Z,26.51
2018-07-04T18:46:35.180Z,26.45
2018-07-04T18:49:02.880Z,26.40
2018-07-04T18:51:31.911Z,26.34
2018-07-04T18:53:59.593Z,26.27
2018-07-04T18:56:27.577Z,26.21
2018-07-04T18:58:56.312Z,26.15
2018-07-04T19:01:25.397Z,26.11
2018-07-04T19:03:53.732Z,26.06
2018-07-04T19:06:21.759Z,26.01
2018-07-04T19:08:50.096Z,25.95
2018-07-04T19:11:17.809Z,25.91
2018-07-04T19:13:46.507Z,25.81
2018-07-04T19:16:14.207Z,25.73
2018-07-04T19:18:43.599Z,25.63
2018-07-04T19:21:11.580Z,25.55
2018-07-04T19:23:41.383Z,25.45
2018-07-04T19:26:09.559Z,25.34
2018-07-04T19:28:37.620Z,25.25
2018-07-04T19:31:09.256Z,25.14
2018-07-04T19:33:37.756Z,25.04
2018-07-04T19:36:06.516Z,24.94
2018-07-04T19:38:35.624Z,24.86
2018-07-04T19:41:06.713Z,24.79
2018-07-04T19:43:35.044Z,24.72
2018-07-04T19:46:03.405Z,24.65
2018-07-04T19:48:33.274Z,24.60
2018-07-04T19:51:01.258Z,24.52
2018-07-04T19:53:29.736Z,24.45
2018-07-04T19:55:57.405Z,24.39
2018-07-04T19:58:27.355Z,24.33
2018-07-04T20:00:55.211Z,24.26
2018-07-04T20:03:24.300Z,24.19
2018-07-04T20:05:57.225Z,24.14
2018-07-04T20:08:27.312Z,24.08
2018-07-04T20:10:56.368Z,24.02
2018-07-04T20:13:32.762Z,23.96
2018-07-04T20:16:01.829Z,23.89
2018-07-04T20:18:32.468Z,23.82
2018-07-04T20:21:02.731Z,23.77
2018-07-04T20:23:34.891Z,23.72
2018-07-04T20:26:03.268Z,23.68
2018-07-04T20:28:32.871Z,23.66
2018-07-04T20:31:02.054Z,23.65
2018-07-04T20:33:29.734Z,23.60
2018-07-04T20:36:00.522Z,23.57
2018-07-04T20:38:29.364Z,23.54
2018-07-04T20:41:00.414Z,23.52
2018-07-04T20:43:29.103Z,23.49
2018-07-04T20:45:59.680Z,23.48
2018-07-04T20:48:27.371Z,23.45
2018-07-04T20:50:59.709Z,23.40
2018-07-04T20:53:31.070Z,23.38
2018-07-04T20:55:59.460Z,23.32
2018-07-04T20:58:29.937Z,23.27
2018-07-04T21:00:59.616Z,23.20
2018-07-04T21:03:29.317Z,23.14
2018-07-04T21:06:01.918Z,23.09
2018-07-04T21:08:30.568Z,23.05
2018-07-04T21:11:12.367Z,23.03
2018-07-04T21:13:40.332Z,22.99
2018-07-04T21:16:09.570Z,22.93
2018-07-04T21:18:37.885Z,22.85
2018-07-04T21:21:06.935Z,22.80
2018-07-04T21:23:34.608Z,22.76
2018-07-04T21:26:04.164Z,22.71
2018-07-04T21:28:33.747Z,22.69
2018-07-04T21:31:02.636Z,22.64
2018-07-04T21:33:30.288Z,22.59
2018-07-04T21:35:58.303Z,22.54
2018-07-04T21:38:25.966Z,22.51
2018-07-04T21:40:56.617Z,22.48
2018-07-04T21:43:25.107Z,22.45
2018-07-04T21:45:55.757Z,22.42
2018-07-04T21:48:27.452Z,22.38
2018-07-04T21:50:57.200Z,22.35
2018-07-04T21:53:25.434Z,22.34
2018-07-04T21:55:53.651Z,22.35
2018-07-04T21:58:21.631Z,22.37
2018-07-04T22:00:50.410Z,22.38
2018-07-04T22:03:19.361Z,22.41
2018-07-04T22:05:48.283Z,22.43
2018-07-04T22:08:21.880Z,22.45
2018-07-04T22:10:49.821Z,22.44
2018-07-04T22:13:17.998Z,22.42
2018-07-04T22:15:49.229Z,22.41
2018-07-04T22:18:17.261Z,22.37
2018-07-04T22:20:45.683Z,22.34
2018-07-04T22:34:27.321Z,22.17
2018-07-04T22:39:39.010Z,22.10
2018-07-04T22:44:41.568Z,22.05
2018-07-04T22:49:55.236Z,22.03
2018-07-04T22:55:03.401Z,22.07
2018-07-04T22:57:32.662Z,22.07
2018-07-04T23:00:00.372Z,22.06
2018-07-04T23:02:28.276Z,22.05
2018-07-04T23:04:59.479Z,22.04
2018-07-04T23:07:30.591Z,21.99
2018-07-04T23:12:35.667Z,21.88
2018-07-04T23:15:04.216Z,21.84
2018-07-04T23:20:05.195Z,21.72
2018-07-04T23:22:43.426Z,21.65
2018-07-04T23:38:20.019Z,21.48
2018-07-04T23:48:34.908Z,21.36
2018-07-04T23:51:04.550Z,21.28
2018-07-04T23:53:32.239Z,21.19
